Terminal Aerodrome Forecast
Issued by NWS Austin/San Antonio, TX

Current Version | Previous Version | Text Only | Print | Product List | Glossary On
Versions: 1 2 3 4 5 6 7 8 9 10 11 12 13 14 15
000
FTUS44 KEWX 272331
TAFSAT
TAF
KSAT 272331Z 2800/2906 12014KT P6SM FEW070 FEW250
     FM280600 15010KT P6SM FEW015 FEW250
     FM280800 17006KT P6SM BKN015
     FM281500 16008KT P6SM FEW025
     FM281800 14012KT P6SM FEW060=

USA.gov is the U.S. government's official web portal to all federal, state and local government web resources and services.